sensor_id;sensor_type;location;lat;lon;timestamp;P1;durP1;ratioP1;P2;durP2;ratioP2
29774;SDS011;16676;51.202;6.774;2023-07-09T00:00:33;6.50;;;4.30;;
29774;SDS011;16676;51.202;6.774;2023-07-09T00:04:35;7.18;;;4.47;;
29774;SDS011;16676;51.202;6.774;2023-07-09T00:08:37;7.45;;;5.10;;
29774;SDS011;16676;51.202;6.774;2023-07-09T00:12:45;6.63;;;4.38;;
29774;SDS011;16676;51.202;6.774;2023-07-09T00:16:48;8.23;;;4.90;;
29774;SDS011;16676;51.202;6.774;2023-07-09T00:20:50;6.45;;;4.43;;
29774;SDS011;16676;51.202;6.774;2023-07-09T00:24:52;7.20;;;5.00;;
29774;SDS011;16676;51.202;6.774;2023-07-09T00:28:58;7.38;;;4.75;;
29774;SDS011;16676;51.202;6.774;2023-07-09T00:33:00;6.43;;;4.70;;
29774;SDS011;16676;51.202;6.774;2023-07-09T00:37:09;8.35;;;5.00;;
29774;SDS011;16676;51.202;6.774;2023-07-09T00:41:12;9.98;;;4.85;;
29774;SDS011;16676;51.202;6.774;2023-07-09T00:45:20;8.40;;;4.60;;
29774;SDS011;16676;51.202;6.774;2023-07-09T00:49:27;6.50;;;4.53;;
29774;SDS011;16676;51.202;6.774;2023-07-09T00:53:31;6.97;;;4.22;;
29774;SDS011;16676;51.202;6.774;2023-07-09T00:57:33;6.72;;;4.57;;
29774;SDS011;16676;51.202;6.774;2023-07-09T01:01:39;8.73;;;4.75;;
29774;SDS011;16676;51.202;6.774;2023-07-09T01:05:41;8.27;;;4.63;;
29774;SDS011;16676;51.202;6.774;2023-07-09T01:09:43;6.35;;;4.32;;
29774;SDS011;16676;51.202;6.774;2023-07-09T01:13:46;8.13;;;4.53;;
29774;SDS011;16676;51.202;6.774;2023-07-09T01:17:50;6.82;;;4.35;;
29774;SDS011;16676;51.202;6.774;2023-07-09T01:21:55;7.65;;;4.35;;
29774;SDS011;16676;51.202;6.774;2023-07-09T01:25:59;6.88;;;4.60;;
29774;SDS011;16676;51.202;6.774;2023-07-09T01:30:03;8.73;;;4.70;;
29774;SDS011;16676;51.202;6.774;2023-07-09T01:34:07;7.82;;;4.43;;
29774;SDS011;16676;51.202;6.774;2023-07-09T01:38:11;6.28;;;4.28;;
29774;SDS011;16676;51.202;6.774;2023-07-09T01:42:12;7.90;;;4.53;;
29774;SDS011;16676;51.202;6.774;2023-07-09T01:46:14;8.30;;;4.68;;
29774;SDS011;16676;51.202;6.774;2023-07-09T01:50:17;8.25;;;4.60;;
29774;SDS011;16676;51.202;6.774;2023-07-09T01:54:21;6.43;;;4.15;;
29774;SDS011;16676;51.202;6.774;2023-07-09T01:58:24;5.70;;;4.30;;
29774;SDS011;16676;51.202;6.774;2023-07-09T02:02:26;5.45;;;3.95;;
29774;SDS011;16676;51.202;6.774;2023-07-09T02:06:28;8.82;;;4.38;;
29774;SDS011;16676;51.202;6.774;2023-07-09T02:10:33;6.65;;;4.38;;
29774;SDS011;16676;51.202;6.774;2023-07-09T02:14:35;6.78;;;4.28;;
29774;SDS011;16676;51.202;6.774;2023-07-09T02:18:37;6.07;;;3.63;;
29774;SDS011;16676;51.202;6.774;2023-07-09T02:22:39;8.00;;;4.45;;
29774;SDS011;16676;51.202;6.774;2023-07-09T02:26:43;6.40;;;4.18;;
29774;SDS011;16676;51.202;6.774;2023-07-09T02:30:45;6.78;;;4.25;;
29774;SDS011;16676;51.202;6.774;2023-07-09T02:34:48;8.43;;;4.85;;
29774;SDS011;16676;51.202;6.774;2023-07-09T02:38:53;7.60;;;4.25;;
29774;SDS011;16676;51.202;6.774;2023-07-09T02:42:56;5.53;;;3.85;;
29774;SDS011;16676;51.202;6.774;2023-07-09T02:46:58;6.55;;;4.45;;
29774;SDS011;16676;51.202;6.774;2023-07-09T02:50:59;6.82;;;4.55;;
29774;SDS011;16676;51.202;6.774;2023-07-09T02:55:01;6.90;;;4.53;;
29774;SDS011;16676;51.202;6.774;2023-07-09T02:59:05;7.38;;;4.30;;
29774;SDS011;16676;51.202;6.774;2023-07-09T03:03:07;7.53;;;4.88;;
29774;SDS011;16676;51.202;6.774;2023-07-09T03:07:09;5.65;;;4.25;;
29774;SDS011;16676;51.202;6.774;2023-07-09T03:11:12;7.03;;;4.18;;
29774;SDS011;16676;51.202;6.774;2023-07-09T03:15:16;7.72;;;4.82;;
29774;SDS011;16676;51.202;6.774;2023-07-09T03:19:19;7.18;;;4.68;;
29774;SDS011;16676;51.202;6.774;2023-07-09T03:23:21;8.48;;;4.65;;
29774;SDS011;16676;51.202;6.774;2023-07-09T03:27:23;8.35;;;4.60;;
29774;SDS011;16676;51.202;6.774;2023-07-09T03:31:26;7.72;;;4.55;;
29774;SDS011;16676;51.202;6.774;2023-07-09T03:35:28;7.90;;;4.57;;
29774;SDS011;16676;51.202;6.774;2023-07-09T03:39:30;7.32;;;4.60;;
29774;SDS011;16676;51.202;6.774;2023-07-09T03:43:32;6.60;;;4.72;;
29774;SDS011;16676;51.202;6.774;2023-07-09T03:47:35;7.75;;;4.63;;
29774;SDS011;16676;51.202;6.774;2023-07-09T03:51:37;7.63;;;4.40;;
29774;SDS011;16676;51.202;6.774;2023-07-09T03:55:39;7.00;;;4.40;;
29774;SDS011;16676;51.202;6.774;2023-07-09T03:59:41;6.03;;;4.10;;
29774;SDS011;16676;51.202;6.774;2023-07-09T04:03:45;4.88;;;3.65;;
29774;SDS011;16676;51.202;6.774;2023-07-09T04:07:47;7.53;;;4.40;;
29774;SDS011;16676;51.202;6.774;2023-07-09T04:11:49;8.63;;;3.92;;
29774;SDS011;16676;51.202;6.774;2023-07-09T04:15:51;6.47;;;4.40;;
29774;SDS011;16676;51.202;6.774;2023-07-09T04:19:54;8.10;;;4.80;;
29774;SDS011;16676;51.202;6.774;2023-07-09T04:23:56;6.60;;;4.47;;
29774;SDS011;16676;51.202;6.774;2023-07-09T04:27:58;6.28;;;4.68;;
29774;SDS011;16676;51.202;6.774;2023-07-09T04:32:00;8.40;;;4.63;;
29774;SDS011;16676;51.202;6.774;2023-07-09T04:36:03;7.18;;;4.55;;
29774;SDS011;16676;51.202;6.774;2023-07-09T04:40:07;8.00;;;4.80;;
29774;SDS011;16676;51.202;6.774;2023-07-09T04:44:12;6.80;;;4.72;;
29774;SDS011;16676;51.202;6.774;2023-07-09T04:48:14;7.88;;;4.60;;
29774;SDS011;16676;51.202;6.774;2023-07-09T04:52:17;6.38;;;4.18;;
29774;SDS011;16676;51.202;6.774;2023-07-09T04:56:19;7.78;;;4.75;;
29774;SDS011;16676;51.202;6.774;2023-07-09T05:00:21;7.22;;;4.53;;
29774;SDS011;16676;51.202;6.774;2023-07-09T05:04:23;8.60;;;4.25;;
29774;SDS011;16676;51.202;6.774;2023-07-09T05:08:26;5.78;;;4.18;;
29774;SDS011;16676;51.202;6.774;2023-07-09T05:12:28;6.05;;;4.18;;
29774;SDS011;16676;51.202;6.774;2023-07-09T05:16:30;6.53;;;3.88;;
29774;SDS011;16676;51.202;6.774;2023-07-09T05:20:32;6.03;;;4.20;;
29774;SDS011;16676;51.202;6.774;2023-07-09T05:24:35;7.50;;;4.43;;
29774;SDS011;16676;51.202;6.774;2023-07-09T05:28:37;6.80;;;4.40;;
29774;SDS011;16676;51.202;6.774;2023-07-09T05:32:39;7.72;;;4.55;;
29774;SDS011;16676;51.202;6.774;2023-07-09T05:36:41;6.43;;;4.15;;
29774;SDS011;16676;51.202;6.774;2023-07-09T05:40:44;7.32;;;4.32;;
29774;SDS011;16676;51.202;6.774;2023-07-09T05:44:46;6.75;;;4.45;;
29774;SDS011;16676;51.202;6.774;2023-07-09T05:48:48;8.13;;;4.63;;
29774;SDS011;16676;51.202;6.774;2023-07-09T05:52:50;7.55;;;4.63;;
29774;SDS011;16676;51.202;6.774;2023-07-09T05:56:53;7.63;;;4.28;;
29774;SDS011;16676;51.202;6.774;2023-07-09T06:00:55;6.40;;;4.35;;
29774;SDS011;16676;51.202;6.774;2023-07-09T06:04:57;7.68;;;4.22;;
29774;SDS011;16676;51.202;6.774;2023-07-09T06:08:59;6.78;;;4.50;;
29774;SDS011;16676;51.202;6.774;2023-07-09T06:13:03;7.32;;;4.20;;
29774;SDS011;16676;51.202;6.774;2023-07-09T06:17:04;8.70;;;4.20;;
29774;SDS011;16676;51.202;6.774;2023-07-09T06:21:06;5.43;;;3.95;;
29774;SDS011;16676;51.202;6.774;2023-07-09T06:25:11;6.05;;;4.07;;
29774;SDS011;16676;51.202;6.774;2023-07-09T06:29:15;7.82;;;4.00;;
29774;SDS011;16676;51.202;6.774;2023-07-09T06:33:17;7.40;;;4.15;;
29774;SDS011;16676;51.202;6.774;2023-07-09T06:37:20;5.07;;;3.63;;
29774;SDS011;16676;51.202;6.774;2023-07-09T06:41:22;6.93;;;4.20;;
29774;SDS011;16676;51.202;6.774;2023-07-09T06:45:26;5.40;;;4.03;;
29774;SDS011;16676;51.202;6.774;2023-07-09T06:49:27;5.78;;;3.72;;
29774;SDS011;16676;51.202;6.774;2023-07-09T06:53:29;9.30;;;4.13;;
29774;SDS011;16676;51.202;6.774;2023-07-09T06:57:31;6.18;;;4.03;;
29774;SDS011;16676;51.202;6.774;2023-07-09T07:01:35;6.47;;;3.83;;
29774;SDS011;16676;51.202;6.774;2023-07-09T07:05:37;8.13;;;3.90;;
29774;SDS011;16676;51.202;6.774;2023-07-09T07:09:40;6.97;;;3.95;;
29774;SDS011;16676;51.202;6.774;2023-07-09T07:13:43;9.60;;;3.95;;
29774;SDS011;16676;51.202;6.774;2023-07-09T07:17:47;6.85;;;3.83;;
29774;SDS011;16676;51.202;6.774;2023-07-09T07:21:50;4.90;;;3.55;;
29774;SDS011;16676;51.202;6.774;2023-07-09T07:25:52;6.03;;;4.00;;
29774;SDS011;16676;51.202;6.774;2023-07-09T07:29:54;8.48;;;4.00;;
29774;SDS011;16676;51.202;6.774;2023-07-09T07:33:58;7.22;;;4.10;;
29774;SDS011;16676;51.202;6.774;2023-07-09T07:38:00;9.13;;;4.25;;
29774;SDS011;16676;51.202;6.774;2023-07-09T07:42:02;7.43;;;3.92;;
29774;SDS011;16676;51.202;6.774;2023-07-09T07:46:04;7.03;;;4.25;;
29774;SDS011;16676;51.202;6.774;2023-07-09T07:50:09;7.15;;;4.38;;
29774;SDS011;16676;51.202;6.774;2023-07-09T07:54:11;7.05;;;4.28;;
29774;SDS011;16676;51.202;6.774;2023-07-09T07:58:14;7.13;;;4.28;;
29774;SDS011;16676;51.202;6.774;2023-07-09T08:02:15;7.65;;;4.47;;
29774;SDS011;16676;51.202;6.774;2023-07-09T08:06:19;6.93;;;4.25;;
29774;SDS011;16676;51.202;6.774;2023-07-09T08:10:21;7.07;;;4.18;;
29774;SDS011;16676;51.202;6.774;2023-07-09T08:14:23;5.53;;;4.25;;
29774;SDS011;16676;51.202;6.774;2023-07-09T08:18:25;6.03;;;4.25;;
29774;SDS011;16676;51.202;6.774;2023-07-09T08:22:28;6.90;;;4.53;;
29774;SDS011;16676;51.202;6.774;2023-07-09T08:26:30;5.78;;;4.13;;
29774;SDS011;16676;51.202;6.774;2023-07-09T08:30:33;5.68;;;4.15;;
29774;SDS011;16676;51.202;6.774;2023-07-09T08:34:37;5.22;;;3.90;;
29774;SDS011;16676;51.202;6.774;2023-07-09T08:38:41;5.88;;;4.07;;
29774;SDS011;16676;51.202;6.774;2023-07-09T08:42:43;7.00;;;4.15;;
29774;SDS011;16676;51.202;6.774;2023-07-09T08:46:49;5.90;;;4.07;;
29774;SDS011;16676;51.202;6.774;2023-07-09T08:51:02;6.93;;;4.50;;
29774;SDS011;16676;51.202;6.774;2023-07-09T08:55:11;7.65;;;4.32;;
29774;SDS011;16676;51.202;6.774;2023-07-09T08:59:16;6.63;;;4.68;;
29774;SDS011;16676;51.202;6.774;2023-07-09T09:03:23;7.00;;;4.18;;
29774;SDS011;16676;51.202;6.774;2023-07-09T09:07:33;7.72;;;3.85;;
29774;SDS011;16676;51.202;6.774;2023-07-09T09:11:43;6.18;;;4.20;;
29774;SDS011;16676;51.202;6.774;2023-07-09T09:15:47;7.35;;;4.32;;
29774;SDS011;16676;51.202;6.774;2023-07-09T09:19:52;6.28;;;4.45;;
29774;SDS011;16676;51.202;6.774;2023-07-09T09:23:57;7.18;;;4.03;;
29774;SDS011;16676;51.202;6.774;2023-07-09T09:28:01;5.47;;;4.03;;
29774;SDS011;16676;51.202;6.774;2023-07-09T09:32:16;6.55;;;4.22;;
29774;SDS011;16676;51.202;6.774;2023-07-09T09:36:24;5.53;;;3.78;;
29774;SDS011;16676;51.202;6.774;2023-07-09T09:40:28;5.80;;;4.38;;
29774;SDS011;16676;51.202;6.774;2023-07-09T09:48:37;6.55;;;4.18;;
29774;SDS011;16676;51.202;6.774;2023-07-09T09:52:39;5.22;;;4.05;;
29774;SDS011;16676;51.202;6.774;2023-07-09T09:56:41;4.38;;;3.78;;
29774;SDS011;16676;51.202;6.774;2023-07-09T10:00:49;6.05;;;3.88;;
29774;SDS011;16676;51.202;6.774;2023-07-09T10:04:52;5.82;;;3.92;;
29774;SDS011;16676;51.202;6.774;2023-07-09T10:08:56;6.53;;;4.03;;
29774;SDS011;16676;51.202;6.774;2023-07-09T10:13:05;8.95;;;4.40;;
29774;SDS011;16676;51.202;6.774;2023-07-09T10:17:20;6.20;;;4.18;;
29774;SDS011;16676;51.202;6.774;2023-07-09T10:21:30;5.78;;;3.90;;
29774;SDS011;16676;51.202;6.774;2023-07-09T10:25:35;6.18;;;4.15;;
29774;SDS011;16676;51.202;6.774;2023-07-09T10:29:53;5.95;;;4.20;;
29774;SDS011;16676;51.202;6.774;2023-07-09T10:34:10;6.05;;;4.10;;
29774;SDS011;16676;51.202;6.774;2023-07-09T10:38:21;6.00;;;4.00;;
29774;SDS011;16676;51.202;6.774;2023-07-09T10:42:35;5.80;;;3.83;;
29774;SDS011;16676;51.202;6.774;2023-07-09T10:46:42;6.90;;;4.32;;
29774;SDS011;16676;51.202;6.774;2023-07-09T10:50:51;6.65;;;4.55;;
29774;SDS011;16676;51.202;6.774;2023-07-09T10:54:55;6.55;;;4.50;;
29774;SDS011;16676;51.202;6.774;2023-07-09T10:59:03;5.05;;;4.25;;
29774;SDS011;16676;51.202;6.774;2023-07-09T11:03:13;6.55;;;4.22;;
29774;SDS011;16676;51.202;6.774;2023-07-09T11:07:20;7.40;;;4.07;;
29774;SDS011;16676;51.202;6.774;2023-07-09T11:11:29;7.35;;;3.97;;
29774;SDS011;16676;51.202;6.774;2023-07-09T11:15:35;7.80;;;3.60;;
29774;SDS011;16676;51.202;6.774;2023-07-09T11:19:41;7.13;;;4.38;;
29774;SDS011;16676;51.202;6.774;2023-07-09T11:23:45;5.88;;;3.78;;
29774;SDS011;16676;51.202;6.774;2023-07-09T11:27:52;7.40;;;4.22;;
29774;SDS011;16676;51.202;6.774;2023-07-09T11:32:06;6.07;;;3.78;;
29774;SDS011;16676;51.202;6.774;2023-07-09T11:36:10;5.63;;;3.60;;
29774;SDS011;16676;51.202;6.774;2023-07-09T11:40:17;8.13;;;3.90;;
29774;SDS011;16676;51.202;6.774;2023-07-09T11:44:21;5.70;;;3.50;;
29774;SDS011;16676;51.202;6.774;2023-07-09T11:48:25;4.93;;;3.47;;
29774;SDS011;16676;51.202;6.774;2023-07-09T11:52:30;5.57;;;4.07;;
29774;SDS011;16676;51.202;6.774;2023-07-09T11:56:37;5.93;;;3.70;;
29774;SDS011;16676;51.202;6.774;2023-07-09T12:00:39;5.63;;;3.65;;
29774;SDS011;16676;51.202;6.774;2023-07-09T12:04:42;6.20;;;3.88;;
29774;SDS011;16676;51.202;6.774;2023-07-09T12:08:45;7.55;;;4.40;;
29774;SDS011;16676;51.202;6.774;2023-07-09T12:12:53;5.25;;;3.50;;
29774;SDS011;16676;51.202;6.774;2023-07-09T12:16:55;4.15;;;3.22;;
29774;SDS011;16676;51.202;6.774;2023-07-09T12:20:57;5.70;;;3.97;;
29774;SDS011;16676;51.202;6.774;2023-07-09T12:24:59;5.53;;;3.88;;
29774;SDS011;16676;51.202;6.774;2023-07-09T12:29:02;7.22;;;3.42;;
29774;SDS011;16676;51.202;6.774;2023-07-09T12:33:06;5.97;;;3.90;;
29774;SDS011;16676;51.202;6.774;2023-07-09T12:37:08;5.40;;;4.20;;
29774;SDS011;16676;51.202;6.774;2023-07-09T12:41:17;4.70;;;3.70;;
29774;SDS011;16676;51.202;6.774;2023-07-09T12:45:23;5.35;;;3.58;;
29774;SDS011;16676;51.202;6.774;2023-07-09T12:49:26;5.28;;;4.07;;
29774;SDS011;16676;51.202;6.774;2023-07-09T12:53:29;5.70;;;3.65;;
29774;SDS011;16676;51.202;6.774;2023-07-09T12:57:31;6.18;;;3.97;;
29774;SDS011;16676;51.202;6.774;2023-07-09T13:01:35;5.38;;;3.83;;
29774;SDS011;16676;51.202;6.774;2023-07-09T13:05:37;6.47;;;4.30;;
29774;SDS011;16676;51.202;6.774;2023-07-09T13:09:47;5.72;;;3.97;;
29774;SDS011;16676;51.202;6.774;2023-07-09T13:13:56;6.40;;;4.22;;
29774;SDS011;16676;51.202;6.774;2023-07-09T13:18:01;6.75;;;4.20;;
29774;SDS011;16676;51.202;6.774;2023-07-09T13:22:04;6.60;;;4.20;;
29774;SDS011;16676;51.202;6.774;2023-07-09T13:26:09;5.20;;;4.10;;
29774;SDS011;16676;51.202;6.774;2023-07-09T13:30:11;4.63;;;3.60;;
29774;SDS011;16676;51.202;6.774;2023-07-09T13:34:17;5.80;;;3.65;;
29774;SDS011;16676;51.202;6.774;2023-07-09T13:38:21;6.22;;;4.32;;
29774;SDS011;16676;51.202;6.774;2023-07-09T13:42:24;5.85;;;4.13;;
29774;SDS011;16676;51.202;6.774;2023-07-09T13:46:27;5.47;;;3.63;;
29774;SDS011;16676;51.202;6.774;2023-07-09T13:50:30;5.32;;;3.42;;
29774;SDS011;16676;51.202;6.774;2023-07-09T13:54:32;5.82;;;3.80;;
29774;SDS011;16676;51.202;6.774;2023-07-09T13:58:37;4.50;;;3.35;;
29774;SDS011;16676;51.202;6.774;2023-07-09T14:02:39;4.85;;;3.25;;
29774;SDS011;16676;51.202;6.774;2023-07-09T14:06:43;6.07;;;3.70;;
29774;SDS011;16676;51.202;6.774;2023-07-09T14:10:46;7.53;;;3.72;;
29774;SDS011;16676;51.202;6.774;2023-07-09T14:14:50;9.05;;;3.60;;
29774;SDS011;16676;51.202;6.774;2023-07-09T14:18:53;7.70;;;4.05;;
29774;SDS011;16676;51.202;6.774;2023-07-09T14:22:56;6.13;;;3.10;;
29774;SDS011;16676;51.202;6.774;2023-07-09T14:26:58;7.72;;;4.05;;
29774;SDS011;16676;51.202;6.774;2023-07-09T14:31:00;6.00;;;3.17;;
29774;SDS011;16676;51.202;6.774;2023-07-09T14:35:03;4.30;;;2.80;;
29774;SDS011;16676;51.202;6.774;2023-07-09T14:39:12;5.05;;;3.30;;
29774;SDS011;16676;51.202;6.774;2023-07-09T14:43:14;6.45;;;3.25;;
29774;SDS011;16676;51.202;6.774;2023-07-09T14:47:17;5.57;;;3.00;;
29774;SDS011;16676;51.202;6.774;2023-07-09T14:51:20;5.03;;;3.00;;
29774;SDS011;16676;51.202;6.774;2023-07-09T14:55:24;6.22;;;3.65;;
29774;SDS011;16676;51.202;6.774;2023-07-09T14:59:26;5.40;;;3.13;;
29774;SDS011;16676;51.202;6.774;2023-07-09T15:03:28;7.35;;;3.33;;
29774;SDS011;16676;51.202;6.774;2023-07-09T15:07:30;6.90;;;3.42;;
29774;SDS011;16676;51.202;6.774;2023-07-09T15:11:34;5.38;;;3.33;;
29774;SDS011;16676;51.202;6.774;2023-07-09T15:15:36;6.35;;;3.65;;
29774;SDS011;16676;51.202;6.774;2023-07-09T15:19:38;7.57;;;3.90;;
29774;SDS011;16676;51.202;6.774;2023-07-09T15:23:40;7.78;;;3.25;;
29774;SDS011;16676;51.202;6.774;2023-07-09T15:27:46;5.20;;;3.60;;
29774;SDS011;16676;51.202;6.774;2023-07-09T15:31:48;8.57;;;3.85;;
29774;SDS011;16676;51.202;6.774;2023-07-09T15:35:50;6.35;;;3.80;;
29774;SDS011;16676;51.202;6.774;2023-07-09T15:39:52;11.43;;;4.47;;
29774;SDS011;16676;51.202;6.774;2023-07-09T15:43:55;9.68;;;4.15;;
29774;SDS011;16676;51.202;6.774;2023-07-09T15:47:57;6.97;;;4.15;;
29774;SDS011;16676;51.202;6.774;2023-07-09T15:51:59;4.57;;;3.30;;
29774;SDS011;16676;51.202;6.774;2023-07-09T15:56:02;8.02;;;4.00;;
29774;SDS011;16676;51.202;6.774;2023-07-09T16:00:13;5.55;;;3.78;;
29774;SDS011;16676;51.202;6.774;2023-07-09T16:04:17;7.60;;;3.47;;
29774;SDS011;16676;51.202;6.774;2023-07-09T16:08:20;7.13;;;4.07;;
29774;SDS011;16676;51.202;6.774;2023-07-09T16:12:22;5.80;;;3.88;;
29774;SDS011;16676;51.202;6.774;2023-07-09T16:16:25;7.30;;;4.05;;
29774;SDS011;16676;51.202;6.774;2023-07-09T16:20:27;5.47;;;3.92;;
29774;SDS011;16676;51.202;6.774;2023-07-09T16:24:31;6.53;;;4.18;;
29774;SDS011;16676;51.202;6.774;2023-07-09T16:28:34;6.30;;;4.30;;
29774;SDS011;16676;51.202;6.774;2023-07-09T16:32:37;6.57;;;4.20;;
29774;SDS011;16676;51.202;6.774;2023-07-09T16:36:39;7.20;;;4.25;;
29774;SDS011;16676;51.202;6.774;2023-07-09T16:40:41;6.38;;;4.00;;
29774;SDS011;16676;51.202;6.774;2023-07-09T16:44:43;7.32;;;4.15;;
29774;SDS011;16676;51.202;6.774;2023-07-09T16:48:47;6.57;;;4.18;;
29774;SDS011;16676;51.202;6.774;2023-07-09T16:52:49;5.72;;;4.20;;
29774;SDS011;16676;51.202;6.774;2023-07-09T16:56:52;7.32;;;4.13;;
29774;SDS011;16676;51.202;6.774;2023-07-09T17:00:54;5.32;;;3.70;;
29774;SDS011;16676;51.202;6.774;2023-07-09T17:09:01;5.82;;;3.85;;
29774;SDS011;16676;51.202;6.774;2023-07-09T17:13:03;7.05;;;3.72;;
29774;SDS011;16676;51.202;6.774;2023-07-09T17:17:07;5.97;;;3.85;;
29774;SDS011;16676;51.202;6.774;2023-07-09T17:25:23;5.50;;;3.65;;
29774;SDS011;16676;51.202;6.774;2023-07-09T17:29:29;8.90;;;4.22;;
29774;SDS011;16676;51.202;6.774;2023-07-09T17:33:32;5.07;;;3.75;;
29774;SDS011;16676;51.202;6.774;2023-07-09T17:37:35;6.15;;;4.00;;
29774;SDS011;16676;51.202;6.774;2023-07-09T17:41:38;5.38;;;3.83;;
29774;SDS011;16676;51.202;6.774;2023-07-09T17:45:39;7.05;;;4.10;;
29774;SDS011;16676;51.202;6.774;2023-07-09T17:49:42;5.78;;;3.55;;
29774;SDS011;16676;51.202;6.774;2023-07-09T17:53:46;7.15;;;3.97;;
29774;SDS011;16676;51.202;6.774;2023-07-09T17:57:48;6.80;;;3.88;;
29774;SDS011;16676;51.202;6.774;2023-07-09T18:01:57;4.97;;;3.75;;
29774;SDS011;16676;51.202;6.774;2023-07-09T18:06:03;4.93;;;3.67;;
29774;SDS011;16676;51.202;6.774;2023-07-09T18:10:07;7.90;;;4.20;;
29774;SDS011;16676;51.202;6.774;2023-07-09T18:14:18;7.03;;;4.30;;
29774;SDS011;16676;51.202;6.774;2023-07-09T18:18:21;5.30;;;3.85;;
29774;SDS011;16676;51.202;6.774;2023-07-09T18:22:23;5.10;;;3.50;;
29774;SDS011;16676;51.202;6.774;2023-07-09T18:26:29;6.57;;;3.50;;
29774;SDS011;16676;51.202;6.774;2023-07-09T18:30:32;6.00;;;3.40;;
29774;SDS011;16676;51.202;6.774;2023-07-09T18:34:36;6.97;;;4.38;;
29774;SDS011;16676;51.202;6.774;2023-07-09T18:38:37;5.25;;;3.65;;
29774;SDS011;16676;51.202;6.774;2023-07-09T18:42:41;6.18;;;4.30;;
29774;SDS011;16676;51.202;6.774;2023-07-09T18:46:43;5.70;;;4.25;;
29774;SDS011;16676;51.202;6.774;2023-07-09T18:50:46;7.03;;;4.20;;
29774;SDS011;16676;51.202;6.774;2023-07-09T18:54:49;6.60;;;4.07;;
29774;SDS011;16676;51.202;6.774;2023-07-09T18:58:54;5.82;;;4.30;;
29774;SDS011;16676;51.202;6.774;2023-07-09T19:02:56;6.40;;;4.13;;
29774;SDS011;16676;51.202;6.774;2023-07-09T19:06:58;6.05;;;3.90;;
29774;SDS011;16676;51.202;6.774;2023-07-09T19:11:00;6.38;;;4.20;;
29774;SDS011;16676;51.202;6.774;2023-07-09T19:15:04;6.30;;;4.05;;
29774;SDS011;16676;51.202;6.774;2023-07-09T19:19:09;5.80;;;4.38;;
29774;SDS011;16676;51.202;6.774;2023-07-09T19:23:16;7.57;;;4.53;;
29774;SDS011;16676;51.202;6.774;2023-07-09T19:27:18;6.28;;;4.25;;
29774;SDS011;16676;51.202;6.774;2023-07-09T19:31:21;4.97;;;4.13;;
29774;SDS011;16676;51.202;6.774;2023-07-09T19:35:24;4.90;;;3.95;;
29774;SDS011;16676;51.202;6.774;2023-07-09T19:39:28;7.85;;;4.25;;
29774;SDS011;16676;51.202;6.774;2023-07-09T19:43:30;7.38;;;4.40;;
29774;SDS011;16676;51.202;6.774;2023-07-09T19:47:34;6.93;;;4.55;;
29774;SDS011;16676;51.202;6.774;2023-07-09T19:51:37;6.57;;;4.50;;
29774;SDS011;16676;51.202;6.774;2023-07-09T19:55:39;8.95;;;4.55;;
29774;SDS011;16676;51.202;6.774;2023-07-09T19:59:41;6.75;;;4.60;;
29774;SDS011;16676;51.202;6.774;2023-07-09T20:03:44;7.53;;;4.43;;
29774;SDS011;16676;51.202;6.774;2023-07-09T20:07:46;7.97;;;4.95;;
29774;SDS011;16676;51.202;6.774;2023-07-09T20:11:49;8.05;;;4.90;;
29774;SDS011;16676;51.202;6.774;2023-07-09T20:15:52;7.70;;;4.82;;
29774;SDS011;16676;51.202;6.774;2023-07-09T20:19:55;8.57;;;4.70;;
29774;SDS011;16676;51.202;6.774;2023-07-09T20:23:57;7.38;;;4.75;;
29774;SDS011;16676;51.202;6.774;2023-07-09T20:27:59;9.02;;;5.03;;
29774;SDS011;16676;51.202;6.774;2023-07-09T20:32:02;10.02;;;5.43;;
29774;SDS011;16676;51.202;6.774;2023-07-09T20:36:06;6.82;;;4.72;;
29774;SDS011;16676;51.202;6.774;2023-07-09T20:40:11;8.40;;;5.50;;
29774;SDS011;16676;51.202;6.774;2023-07-09T20:44:16;11.18;;;5.60;;
29774;SDS011;16676;51.202;6.774;2023-07-09T20:48:20;7.47;;;5.28;;
29774;SDS011;16676;51.202;6.774;2023-07-09T20:52:25;8.10;;;5.30;;
29774;SDS011;16676;51.202;6.774;2023-07-09T20:56:26;8.93;;;5.30;;
29774;SDS011;16676;51.202;6.774;2023-07-09T21:00:31;10.38;;;5.57;;
29774;SDS011;16676;51.202;6.774;2023-07-09T21:04:33;10.90;;;5.40;;
29774;SDS011;16676;51.202;6.774;2023-07-09T21:08:36;9.90;;;5.15;;
29774;SDS011;16676;51.202;6.774;2023-07-09T21:12:38;9.20;;;5.82;;
29774;SDS011;16676;51.202;6.774;2023-07-09T21:16:40;8.13;;;5.57;;
29774;SDS011;16676;51.202;6.774;2023-07-09T21:20:44;10.07;;;5.78;;
29774;SDS011;16676;51.202;6.774;2023-07-09T21:24:49;7.85;;;6.00;;
29774;SDS011;16676;51.202;6.774;2023-07-09T21:28:55;9.48;;;5.38;;
29774;SDS011;16676;51.202;6.774;2023-07-09T21:32:57;10.30;;;5.70;;
29774;SDS011;16676;51.202;6.774;2023-07-09T21:37:00;7.88;;;5.95;;
29774;SDS011;16676;51.202;6.774;2023-07-09T21:41:21;9.88;;;5.28;;
29774;SDS011;16676;51.202;6.774;2023-07-09T21:45:25;8.88;;;5.47;;
29774;SDS011;16676;51.202;6.774;2023-07-09T21:49:31;12.50;;;5.78;;
29774;SDS011;16676;51.202;6.774;2023-07-09T21:53:36;7.40;;;4.90;;
29774;SDS011;16676;51.202;6.774;2023-07-09T21:57:39;7.35;;;4.95;;
29774;SDS011;16676;51.202;6.774;2023-07-09T22:01:41;8.77;;;5.05;;
29774;SDS011;16676;51.202;6.774;2023-07-09T22:05:43;10.85;;;5.25;;
29774;SDS011;16676;51.202;6.774;2023-07-09T22:09:45;6.55;;;4.68;;
29774;SDS011;16676;51.202;6.774;2023-07-09T22:13:49;7.00;;;4.65;;
29774;SDS011;16676;51.202;6.774;2023-07-09T22:17:54;8.55;;;5.18;;
29774;SDS011;16676;51.202;6.774;2023-07-09T22:21:56;8.18;;;4.95;;
29774;SDS011;16676;51.202;6.774;2023-07-09T22:25:58;7.95;;;4.70;;
29774;SDS011;16676;51.202;6.774;2023-07-09T22:30:01;7.97;;;4.82;;
29774;SDS011;16676;51.202;6.774;2023-07-09T22:34:05;9.52;;;4.95;;
29774;SDS011;16676;51.202;6.774;2023-07-09T22:38:19;7.75;;;4.80;;
29774;SDS011;16676;51.202;6.774;2023-07-09T22:42:22;7.18;;;4.80;;
29774;SDS011;16676;51.202;6.774;2023-07-09T22:46:26;7.88;;;4.72;;
29774;SDS011;16676;51.202;6.774;2023-07-09T22:50:29;7.72;;;4.47;;
29774;SDS011;16676;51.202;6.774;2023-07-09T22:54:32;7.95;;;4.82;;
29774;SDS011;16676;51.202;6.774;2023-07-09T22:58:34;9.63;;;4.90;;
29774;SDS011;16676;51.202;6.774;2023-07-09T23:02:37;7.47;;;4.38;;
29774;SDS011;16676;51.202;6.774;2023-07-09T23:06:39;7.47;;;4.68;;
29774;SDS011;16676;51.202;6.774;2023-07-09T23:10:41;7.68;;;3.78;;
29774;SDS011;16676;51.202;6.774;2023-07-09T23:14:43;9.38;;;4.18;;
29774;SDS011;16676;51.202;6.774;2023-07-09T23:18:47;6.05;;;3.85;;
29774;SDS011;16676;51.202;6.774;2023-07-09T23:22:50;6.03;;;3.65;;
29774;SDS011;16676;51.202;6.774;2023-07-09T23:26:53;5.47;;;3.75;;
29774;SDS011;16676;51.202;6.774;2023-07-09T23:30:56;5.75;;;3.63;;
29774;SDS011;16676;51.202;6.774;2023-07-09T23:35:03;6.70;;;3.50;;
29774;SDS011;16676;51.202;6.774;2023-07-09T23:39:13;5.55;;;3.40;;
29774;SDS011;16676;51.202;6.774;2023-07-09T23:43:15;6.10;;;3.83;;
29774;SDS011;16676;51.202;6.774;2023-07-09T23:47:18;5.15;;;3.40;;
29774;SDS011;16676;51.202;6.774;2023-07-09T23:51:21;7.70;;;3.25;;
29774;SDS011;16676;51.202;6.774;2023-07-09T23:55:23;4.60;;;3.10;;
29774;SDS011;16676;51.202;6.774;2023-07-09T23:59:26;7.45;;;3.50;;
